Data for 07/20/2006

Time Sea-Level Adjusted Pressure Absolute Pressure Temperature Relative Humidity Dew Point   
(mb) (inHg) (mb) (inHg) (C) (F) (%) (C) (F)
00:05 1020 30.12 849 25.07 24.7 76.5 22 1.9 35.5
00:10 1020 30.12 849 25.07 24.5 76.1 23 2.3 36.1
00:15 1020 30.12 849 25.07 24.3 75.7 24 2.4 36.3
00:20 1020 30.12 850 25.1 24.1 75.4 24 2.4 36.3
00:25 1020 30.12 849 25.07 24.1 75.3 24 2.5 36.5
00:30 1020 30.12 849 25.07 24 75.1 24 2.7 36.8
00:35 1020 30.12 849 25.07 23.8 74.8 25 2.9 37.2
00:40 1020 30.12 849 25.07 23.5 74.3 26 2.9 37.2
00:45 1020 30.12 849 25.07 23.6 74.4 26 3 37.4
00:50 1020 30.12 849 25.07 23.2 73.7 27 3.5 38.3
00:55 1020 30.12 849 25.07 22.5 72.6 29 3.6 38.5
01:00 1020 30.12 849 25.07 22.5 72.5 28 3.4 38.1
01:05 1020 30.12 849 25.07 22.4 72.2 28 3.4 38.1
01:10 1020 30.12 849 25.07 22.3 72.2 29 3.6 38.5
01:15 1020 30.12 849 25.07 22.2 71.9 29 3.4 38.2
01:20 1020 30.12 849 25.07 22 71.6 29 3.5 38.4
01:25 1020 30.12 849 25.07 22 71.6 29 3.6 38.4
01:30 1020 30.12 850 25.1 21.9 71.5 30 3.7 38.6
01:35 1020 30.12 850 25.1 21.8 71.3 32 4.4 39.9
01:40 1020 30.12 850 25.1 21.7 71.1 31 4 39.2
01:45 1020 30.12 850 25.1 21.6 70.9 31 3.9 39
01:50 1020 30.12 850 25.1 21.5 70.7 32 4.1 39.4
01:55 1020 30.12 850 25.1 21.4 70.4 32 4.1 39.3
02:00 1020 30.12 850 25.1 21.5 70.8 31 3.8 38.8
02:05 1020 30.12 850 25.1 21.5 70.7 30 3.5 38.4
02:10 1020 30.12 850 25.1 21.3 70.3 31 3.8 38.8
02:15 1020 30.12 850 25.1 21.1 70 31 3.6 38.4
02:20 1020 30.12 849 25.07 21 69.8 32 3.7 38.6
02:25 1020 30.12 850 25.1 20.8 69.5 33 4.1 39.3
02:30 1020 30.12 850 25.1 20.4 68.8 32 3.4 38.2
02:35 1020 30.12 850 25.1 20.2 68.3 37 5.1 41.1
02:40 1020 30.12 850 25.1 19.8 67.7 35 4 39.1
02:45 1020 30.12 850 25.1 19.5 67.1 38 5.1 41.2
02:50 1020 30.12 849 25.07 19.3 66.8 37 4.3 39.8
02:55 1020 30.12 849 25.07 18.3 65 44 5.9 42.5
03:00 1020 30.12 849 25.07 17.8 64 40 4.1 39.4
03:05 1020 30.12 849 25.07 19.1 66.4 35 3.3 37.9
03:10 1020 30.12 850 25.1 19.5 67.1 38 4.8 40.6
03:15 1020 30.12 850 25.1 19.8 67.6 32 2.7 36.9
03:20 1020 30.12 850 25.1 20.2 68.3 33 3.4 38.1
03:25 1021 30.15 850 25.1 20 68.1 33 3.6 38.5
03:30 1021 30.15 850 25.1 19.9 67.9 34 3.6 38.4
03:35 1021 30.15 850 25.1 19.9 67.8 34 3.8 38.8
03:40 1021 30.15 850 25.1 19.8 67.7 34 3.7 38.6
03:45 1021 30.15 850 25.1 20 67.9 34 3.6 38.5
03:50 1021 30.15 850 25.1 19.9 67.9 36 4.7 40.5
03:55 1021 30.15 850 25.1 18.9 66 40 5.2 41.4
04:00 1021 30.15 850 25.1 18.1 64.5 45 6 42.8
04:05 1021 30.15 850 25.1 17.7 63.9 45 5.6 42.1
04:10 1021 30.15 850 25.1 16.9 62.5 43 4.4 40
04:15 1021 30.15 850 25.1 17.3 63.1 45 5.3 41.5
04:20 1021 30.15 850 25.1 16.9 62.3 47 5.5 41.9
04:25 1021 30.15 851 25.13 16.8 62.2 44 4.6 40.3
04:30 1021 30.15 851 25.13 17 62.5 44 4.7 40.5
04:35 1021 30.15 851 25.13 16.8 62.2 47 5.4 41.7
04:40 1022 30.18 851 25.13 16.7 62 46 5.2 41.3
04:45 1022 30.18 851 25.13 16.7 62.1 46 5.3 41.5
04:50 1022 30.18 851 25.13 16.5 61.7 49 5.8 42.4
04:55 1022 30.18 851 25.13 15.9 60.5 52 6 42.8
05:00 1022 30.18 851 25.13 15 59 54 5.8 42.4
05:05 1022 30.18 851 25.13 14.7 58.5 54 5.5 42
05:10 1022 30.18 851 25.13 14.7 58.4 52 5.1 41.2
05:15 1022 30.18 851 25.13 15.1 59.1 57 6.7 44
05:20 1022 30.18 851 25.13 15.3 59.5 51 5.4 41.8
05:25 1022 30.18 851 25.13 15.4 59.7 48 4.7 40.4
05:30 1022 30.18 851 25.13 15.6 60.1 50 5.3 41.5
05:35 1022 30.18 852 25.16 15.4 59.6 53 5.9 42.6
05:40 1022 30.18 852 25.16 15.3 59.5 50 5.1 41.2
05:45 1023 30.21 852 25.16 15.1 59.2 50 4.8 40.6
05:50 1023 30.21 852 25.16 15.2 59.4 49 4.7 40.5
05:55 1023 30.21 852 25.16 15.4 59.7 48 4.4 40
06:00 1023 30.21 852 25.16 16 60.9 45 4.3 39.7
06:05 1023 30.21 852 25.16 16 60.8 47 4.9 40.8
06:10 1023 30.21 852 25.16 15.7 60.3 46 4.1 39.4
06:15 1023 30.21 852 25.16 15.6 60.1 48 4.7 40.4
06:20 1023 30.21 852 25.16 15.2 59.3 50 4.9 40.8
06:25 1023 30.21 852 25.16 15.3 59.5 49 4.7 40.4
06:30 1023 30.21 852 25.16 15 59 51 5 41
06:35 1023 30.21 852 25.16 15.2 59.3 48 4.5 40
06:40 1023 30.21 852 25.16 15.3 59.6 50 5.1 41.1
06:45 1023 30.21 852 25.16 15.1 59.2 49 4.7 40.4
06:50 1023 30.21 852 25.16 15.4 59.7 48 4.4 39.9
06:55 1023 30.21 852 25.16 15.6 60.1 47 4.4 40
07:00 1023 30.21 852 25.16 15.8 60.5 46 4.4 39.9
07:05 1023 30.21 852 25.16 16.1 61 45 4.4 39.8
07:10 1023 30.21 852 25.16 16.1 60.9 46 4.5 40.2
07:15 1023 30.21 852 25.16 16.1 60.9 46 4.5 40.1
07:20 1023 30.21 852 25.16 16.2 61.2 44 4 39.2
07:25 1023 30.21 852 25.16 16.5 61.6 44 4.4 39.9
07:30 1023 30.21 852 25.16 16.6 61.8 44 4.2 39.6
07:35 1023 30.21 852 25.16 16.7 62 44 4.4 39.8
07:40 1023 30.21 853 25.19 16.8 62.3 43 4.4 39.9
07:45 1023 30.21 853 25.19 16.9 62.4 43 4.4 40
07:50 1023 30.21 853 25.19 17 62.6 46 5.5 42
07:55 1023 30.21 853 25.19 16.8 62.2 50 6.3 43.3
08:00 1023 30.21 853 25.19 16.4 61.4 48 5.5 41.9
08:05 1023 30.21 853 25.19 16.4 61.6 53 6.8 44.3
08:10 1023 30.21 853 25.19 16.8 62.3 51 6.7 44.1
08:15 1023 30.21 853 25.19 16.9 62.4 51 6.9 44.4
08:20 1023 30.21 853 25.19 17 62.6 52 7.2 44.9
08:25 1023 30.21 853 25.19 17 62.7 59 9 48.2
08:30 1023 30.21 853 25.19 17.4 63.4 51 7.3 45.1
08:35 1023 30.21 853 25.19 18.1 64.5 47 6.8 44.2
08:40 1024 30.24 853 25.19 18.7 65.6 48 7.5 45.4
08:45 1024 30.24 853 25.19 19.2 66.5 47 7.6 45.6
08:50 1024 30.24 853 25.19 19.8 67.6 47 8.2 46.7
08:55 1024 30.24 853 25.19 20.5 68.8 44 7.8 46.1
09:00 1024 30.24 853 25.19 20.6 69.1 45 8.4 47.1
09:05 1024 30.24 853 25.19 20.6 69.1 46 8.8 47.8
09:10 1024 30.24 853 25.19 20.3 68.5 45 8.2 46.8
09:15 1024 30.24 853 25.19 20 68 43 7.2 45
09:20 1024 30.24 853 25.19 20.3 68.5 44 7.6 45.7
09:25 1024 30.24 853 25.19 20.8 69.5 39 6.4 43.6
09:30 1024 30.24 853 25.19 21.8 71.2 37 6.5 43.7
09:35 1024 30.24 853 25.19 22.4 72.3 34 5.9 42.5
09:40 1024 30.24 853 25.19 22.8 73 31 5.1 41.2
09:45 1024 30.24 853 25.19 23.5 74.3 31 5.6 42.1
09:50 1024 30.24 853 25.19 24.1 75.4 30 5.6 42.1
09:55 1024 30.24 853 25.19 23.9 75.1 32 6.6 43.9
10:00 1024 30.24 853 25.19 23.6 74.4 33 6.6 43.9
10:05 1024 30.24 853 25.19 23.4 74.2 32 6.1 43.1
10:10 1024 30.24 853 25.19 23.5 74.2 34 6.8 44.2
10:15 1024 30.24 853 25.19 23.1 73.6 33 6.1 43
10:20 1024 30.24 853 25.19 23.8 74.9 32 6.4 43.5
10:25 1024 30.24 853 25.19 25.2 77.3 30 6.5 43.7
10:30 1024 30.24 853 25.19 25.5 77.9 31 7.2 44.9
10:35 1024 30.24 853 25.19 25.7 78.2 31 7.3 45.1
10:40 1024 30.24 853 25.19 25.7 78.3 32 7.9 46.2
10:45 1024 30.24 853 25.19 25.9 78.6 28 6.5 43.7
10:50 1024 30.24 853 25.19 26 78.9 29 7.1 44.8
10:55 1024 30.24 853 25.19 26.5 79.8 30 7.7 45.8
11:00 1024 30.24 853 25.19 26.7 80 28 6.9 44.4
11:05 1024 30.24 853 25.19 27 80.5 28 7.2 45
11:10 1024 30.24 853 25.19 27.3 81.1 29 8.1 46.6
11:15 1024 30.24 853 25.19 27.1 80.8 27 6.9 44.5
11:20 1024 30.24 853 25.19 27.3 81.1 28 7.6 45.7
11:25 1024 30.24 853 25.19 27.7 81.8 25 6 42.7
11:30 1024 30.24 853 25.19 27.9 82.3 24 6.1 43
11:35 1024 30.24 853 25.19 27.8 82.1 25 6.1 43
11:40 1024 30.24 853 25.19 28.2 82.7 24 6.3 43.3
11:45 1024 30.24 853 25.19 28.4 83.1 23 5.8 42.4
11:50 1024 30.24 853 25.19 28.4 83.2 25 6.7 44.1
11:55 1024 30.24 853 25.19 28 82.4 25 6.5 43.8
12:00 1024 30.24 853 25.19 28.1 82.6 26 7.3 45.1
12:05 1024 30.24 853 25.19 28.2 82.7 25 6.5 43.7
12:10 1024 30.24 853 25.19 28.6 83.4 25 6.7 44.1
12:15 1024 30.24 853 25.19 28.6 83.4 24 6.5 43.8
12:20 1024 30.24 853 25.19 28.9 84.1 22 5.7 42.2
12:25 1024 30.24 853 25.19 28 82.3 25 6.3 43.3
12:30 1024 30.24 853 25.19 28.6 83.5 24 6.4 43.5
12:35 1024 30.24 853 25.19 29.1 84.5 21 5.2 41.4
12:40 1024 30.24 853 25.19 28.7 83.7 23 6.1 43
12:45 1024 30.24 853 25.19 28.5 83.3 22 5.4 41.6
12:50 1024 30.24 853 25.19 29.2 84.6 22 5.7 42.3
12:55 1024 30.24 853 25.19 29.1 84.3 22 5.4 41.7
13:00 1024 30.24 853 25.19 29.6 85.2 20 4.9 40.8
13:05 1024 30.24 853 25.19 29.6 85.3 20 4.4 40
13:10 1024 30.24 853 25.19 29.8 85.6 21 5.3 41.5
13:15 1024 30.24 853 25.19 29.7 85.5 20 4.9 40.8
13:20 1024 30.24 853 25.19 29.6 85.3 20 4.4 39.9
13:25 1024 30.24 853 25.19 29.5 85.2 21 5.2 41.3
13:30 1024 30.24 853 25.19 29.3 84.8 21 4.9 40.7
13:35 1024 30.24 853 25.19 29.2 84.6 21 4.7 40.5
13:40 1024 30.24 853 25.19 30.3 86.6 20 5.1 41.1
13:45 1024 30.24 853 25.19 30.3 86.5 19 4.6 40.4
13:50 1024 30.24 853 25.19 30.5 86.9 19 4.9 40.8
13:55 1024 30.24 853 25.19 30.3 86.5 20 5.1 41.1
14:00 1024 30.24 853 25.19 30.2 86.3 18 3.5 38.3
14:05 1024 30.24 853 25.19 30.6 87 18 4 39.2
14:10 1024 30.24 853 25.19 30.7 87.3 18 4 39.1
14:15 1024 30.24 853 25.19 31.1 88 18 4 39.2
14:20 1024 30.24 853 25.19 31.2 88.1 18 4.7 40.5
14:25 1024 30.24 853 25.19 30.7 87.3 18 4.3 39.7
14:30 1024 30.24 853 25.19 30.9 87.6 18 4.4 40
14:35 1024 30.24 853 25.19 31.2 88.2 17 3.8 38.8
14:40 1024 30.24 853 25.19 31.2 88.2 17 4 39.2
14:45 1024 30.24 853 25.19 31.5 88.6 19 5.3 41.5
14:50 1024 30.24 853 25.19 31.3 88.4 17 3.7 38.6
14:55 1024 30.24 853 25.19 31.3 88.3 16 2.6 36.7
15:00 1024 30.24 853 25.19 30.8 87.4 16 2.2 36
15:05 1024 30.24 853 25.19 31.1 87.9 16 2.7 36.9
15:10 1024 30.24 853 25.19 31.3 88.3 16 2.9 37.2
15:15 1024 30.24 853 25.19 31.2 88.2 16 2.5 36.5
15:20 1024 30.24 853 25.19 31 87.9 16 2.9 37.2
15:25 1024 30.24 853 25.19 31.2 88.1 18 4.1 39.5
15:30 1024 30.24 853 25.19 31.4 88.5 17 3.5 38.4
15:35 1024 30.24 853 25.19 32 89.5 16 3.3 38
15:40 1024 30.24 853 25.19 32.1 89.7 17 4.3 39.7
15:45 1024 30.24 853 25.19 32.1 89.7 15 2.9 37.3
15:50 1024 30.24 853 25.19 32.2 90 15 2.9 37.3
15:55 1024 30.24 853 25.19 32.1 89.7 15 2.9 37.2
16:00 1024 30.24 853 25.19 31.5 88.7 15 2.5 36.4
16:05 1024 30.24 853 25.19 31.6 88.9 15 1.9 35.4
16:10 1024 30.24 853 25.19 31.7 89 15 2.6 36.8
16:15 1024 30.24 853 25.19 31.5 88.6 15 1.7 35.1
16:20 1024 30.24 853 25.19 30.7 87.3 16 2 35.7
16:25 1024 30.24 853 25.19 31.1 88 15 1.8 35.3
16:30 1024 30.24 853 25.19 31.4 88.6 15 1.9 35.5
16:35 1024 30.24 853 25.19 31.6 88.9 15 1.8 35.3
16:40 1024 30.24 853 25.19 31.4 88.6 15 2.1 35.7
16:45 1024 30.24 853 25.19 31.2 88.2 15 1.9 35.3
16:50 1024 30.24 853 25.19 31.4 88.4 15 2.2 36
16:55 1024 30.24 853 25.19 31.4 88.4 15 2 35.7
17:00 1024 30.24 853 25.19 31.6 88.8 14 1.5 34.8
17:05 1024 30.24 853 25.19 31.6 88.8 14 1.6 34.9
17:10 1024 30.24 853 25.19 31.6 88.8 15 2.3 36.2
17:15 1024 30.24 853 25.19 31.6 88.9 14 1.6 35
17:20 1024 30.24 854 25.22 31.5 88.7 15 2.1 35.7
17:25 1024 30.24 854 25.22 31.3 88.3 15 2.1 35.7
17:30 1024 30.24 854 25.22 31.2 88.1 14 1.4 34.5
17:35 1024 30.24 854 25.22 30.7 87.2 15 1.7 35.1
17:40 1024 30.24 854 25.22 30.1 86.2 15 0.7 33.3
17:45 1025 30.27 854 25.22 30.1 86.3 15 1 33.8
17:50 1024 30.24 854 25.22 29.9 85.9 15 0.5 32.9
17:55 1024 30.24 854 25.22 30.1 86.3 15 0.7 33.2
18:00 1024 30.24 854 25.22 30.7 87.2 14 0.9 33.7
18:05 1024 30.24 854 25.22 30.9 87.6 15 1.3 34.3
18:10 1025 30.27 854 25.22 30.9 87.7 14 1.1 34.1
18:15 1025 30.27 854 25.22 30.9 87.6 15 1.4 34.5
18:20 1025 30.27 854 25.22 30.3 86.5 15 1.4 34.6
18:25 1025 30.27 854 25.22 30.3 86.6 14 0.6 33.1
18:30 1025 30.27 854 25.22 30.5 86.8 15 0.9 33.7
18:35 1025 30.27 854 25.22 30.6 87 15 1.2 34.1
18:40 1025 30.27 854 25.22 30.2 86.3 15 1 33.8
18:45 1025 30.27 854 25.22 30 85.9 15 1 33.9
18:50 1025 30.27 854 25.22 29.9 85.8 15 0.5 32.9
18:55 1025 30.27 854 25.22 30.1 86.2 14 0.2 32.4
19:00 1025 30.27 854 25.22 29.9 85.7 15 0.6 33
19:05 1025 30.27 854 25.22 30.1 86.1 15 0.8 33.5
19:10 1025 30.27 854 25.22 30 85.9 15 0.8 33.4
19:15 1025 30.27 854 25.22 29.9 85.9 15 0.9 33.6
19:20 1025 30.27 854 25.22 29.6 85.3 15 0.9 33.7
19:25 1025 30.27 854 25.22 29.3 84.7 16 1.2 34.2
19:30 1025 30.27 854 25.22 29.1 84.4 16 0.6 33.2
19:35 1025 30.27 854 25.22 29 84.3 16 0.9 33.6
19:40 1025 30.27 854 25.22 28.8 83.9 16 0.6 33
19:45 1025 30.27 854 25.22 28.7 83.7 16 1 33.9
19:50 1025 30.27 854 25.22 28.6 83.6 17 1.8 35.3
19:55 1025 30.27 854 25.22 28.7 83.6 17 1.7 35
20:00 1025 30.27 854 25.22 28.6 83.6 18 2.2 35.9
20:05 1025 30.27 854 25.22 28.5 83.4 18 2.4 36.3
20:10 1025 30.27 854 25.22 28.4 83.1 18 2.3 36.1
20:15 1025 30.27 854 25.22 28.2 82.8 18 2.1 35.8
20:20 1025 30.27 854 25.22 28.1 82.6 18 2.3 36.1
20:25 1025 30.27 854 25.22 28 82.4 20 3.4 38.2
20:30 1025 30.27 854 25.22 27.9 82.2 19 2.3 36.1
20:35 1025 30.27 854 25.22 27.8 82.1 19 2.2 36
20:40 1025 30.27 855 25.25 27.7 81.9 19 2.2 35.9
20:45 1025 30.27 855 25.25 27.7 81.8 21 3.4 38.1
20:50 1025 30.27 855 25.25 27.5 81.5 19 2.4 36.4
20:55 1026 30.3 855 25.25 27.1 80.8 24 5.2 41.3
21:00 1026 30.3 855 25.25 26.2 79.2 27 5.8 42.4
21:05 1026 30.3 855 25.25 25.7 78.3 23 3.5 38.4
21:10 1026 30.3 855 25.25 25.7 78.3 22 2.6 36.7
21:15 1026 30.3 855 25.25 25.8 78.4 22 3 37.5
21:20 1026 30.3 855 25.25 25.6 78 22 2.4 36.3
21:25 1026 30.3 855 25.25 25.6 78 24 3.5 38.3
21:30 1026 30.3 855 25.25 24.6 76.2 25 3.7 38.7
21:35 1026 30.3 855 25.25 24.3 75.7 25 3.1 37.5
21:40 1026 30.3 855 25.25 24.4 75.9 25 3.2 37.8
21:45 1026 30.3 856 25.28 24.4 75.9 24 2.7 36.9
21:50 1026 30.3 856 25.28 24.4 75.9 24 3 37.3
21:55 1026 30.3 856 25.28 24.4 75.9 24 2.8 37
22:00 1026 30.3 856 25.28 24.3 75.7 25 3.1 37.6
22:05 1027 30.33 856 25.28 24 75.1 25 3.1 37.6
22:10 1027 30.33 856 25.28 23.7 74.6 25 2.9 37.3
22:15 1027 30.33 856 25.28 23.4 74.2 26 3 37.4
22:20 1027 30.33 856 25.28 23.4 74.1 26 2.9 37.2
22:25 1027 30.33 856 25.28 23.4 74 26 2.9 37.3
22:30 1027 30.33 856 25.28 23.2 73.8 26 3 37.4
22:35 1027 30.33 856 25.28 23.1 73.5 27 3.1 37.6
22:40 1027 30.33 856 25.28 22.8 73 27 3.1 37.7
22:45 1027 30.33 856 25.28 22.6 72.8 28 3.2 37.8
22:50 1027 30.33 856 25.28 22.5 72.5 28 3.1 37.6
22:55 1027 30.33 857 25.31 22.3 72.2 28 3.2 37.7
23:00 1027 30.33 857 25.31 22.2 71.9 28 3.2 37.7
23:05 1027 30.33 857 25.31 22.2 71.9 28 3 37.4
23:10 1027 30.33 856 25.28 22.3 72.1 28 2.9 37.2
23:15 1027 30.33 857 25.31 22.4 72.3 28 3.1 37.6
23:20 1027 30.33 857 25.31 22.3 72.2 28 3.2 37.7
23:25 1027 30.33 857 25.31 22.2 72 28 3 37.5
23:30 1027 30.33 857 25.31 22.2 72 28 3.3 37.9
23:35 1028 30.36 857 25.31 22.3 72.1 28 3.2 37.8
23:40 1028 30.36 857 25.31 22.1 71.9 29 3.4 38.1
23:45 1028 30.36 857 25.31 22 71.5 29 3.4 38
23:50 1028 30.36 857 25.31 22 71.5 29 3.2 37.8
23:55 1028 30.36 857 25.31 22 71.6 29 3.5 38.2
24:00 1028 30.36 857 25.31 21.8 71.2 30 3.5 38.3